Shaw, Missouri
Current Conditions -  °F | °C
As of 6:08 PM on Sunday 23 Nov 2014 (Local Time) from KCOU Reporting Station
Moderate Fog Moderate Fog  
Wind Chill: 53°   Ceiling: 200
Heat Index: 53°   Visibility: 0.25mi
Dew Point: 52°   Wind: 0mph
Humidity: 96%   Direction: NA
Pressure: 29.27"   Gusts: NA
Location:  39.0235°N, 92.2896°W
Report Text: KCOU 240008Z 00000KT 1/4SM FG VV002 12/11 A2927 RMK AO2 T01170111 $
Loading
Personal Weather Stations






























Interactive Weather Map New forecast layout! Learn more

10-Day Weather Forecast

Advertisements
Track Severe Weather on mobile